Time;durP1;ratioP1;P1;durP2;ratioP2;P2;SDS_P1;SDS_P2;PMS_P1;PMS_P2;Temp;Humidity;BMP_temperature;BMP_pressure;BME280_temperature;BME280_humidity;BME280_pressure;Samples;Min_cycle;Max_cycle;Signal;HPM_P1;HPM_P2
2022/04/30 00:02:11;;;;;;;25.48;14.68;;;9.00;99.90;;;;;;4981612;28;20038;-60
2022/04/30 00:04:42;;;;;;;24.02;15.02;;;9.00;99.90;;;;;;4974547;28;20026;-55
2022/04/30 00:07:08;;;;;;;28.45;14.27;;;9.00;99.90;;;;;;4978004;28;20033;-59
2022/04/30 00:09:34;;;;;;;24.02;14.88;;;9.00;99.90;;;;;;4987934;28;20120;-54
2022/04/30 00:12:00;;;;;;;20.65;14.30;;;9.00;99.90;;;;;;4979048;28;20038;-58
2022/04/30 00:14:26;;;;;;;27.13;14.85;;;9.00;99.90;;;;;;4987372;28;20033;-60
2022/04/30 00:16:52;;;;;;;25.23;14.20;;;9.00;99.90;;;;;;5004483;28;20030;-59
2022/04/30 00:19:20;;;;;;;19.95;13.68;;;8.90;99.90;;;;;;4991862;28;20652;-56
2022/04/30 00:21:46;;;;;;;24.83;14.15;;;8.90;99.90;;;;;;4991967;28;20030;-57
2022/04/30 00:24:12;;;;;;;20.02;12.82;;;8.80;99.90;;;;;;4993606;28;20036;-58
2022/04/30 00:26:37;;;;;;;19.67;12.57;;;8.80;99.90;;;;;;4986301;28;20065;-60
2022/04/30 00:29:03;;;;;;;21.45;12.95;;;8.80;99.90;;;;;;4979997;28;20048;-58
2022/04/30 00:31:29;;;;;;;17.55;11.20;;;8.80;99.90;;;;;;4963449;28;20042;-55
2022/04/30 00:33:55;;;;;;;17.95;11.27;;;8.80;99.90;;;;;;4981126;28;20030;-52
2022/04/30 00:36:22;;;;;;;21.77;11.60;;;8.70;99.90;;;;;;4987316;28;20113;-57
2022/04/30 00:38:48;;;;;;;36.08;12.85;;;8.70;99.90;;;;;;4987210;28;20492;-57
2022/04/30 00:41:15;;;;;;;18.92;11.70;;;8.70;99.90;;;;;;4977027;28;20043;-57
2022/04/30 00:43:48;;;;;;;19.38;11.30;;;8.60;99.90;;;;;;4978382;28;20026;-60
2022/04/30 00:46:15;;;;;;;20.55;10.63;;;8.60;99.90;;;;;;4989863;28;20049;-59
2022/04/30 00:48:41;;;;;;;20.40;10.90;;;8.60;99.90;;;;;;4984835;28;20116;-59
2022/04/30 00:51:12;;;;;;;22.08;10.82;;;8.60;99.90;;;;;;4980158;28;20031;-60
2022/04/30 00:53:39;;;;;;;18.25;10.43;;;8.60;99.90;;;;;;4979245;28;20161;-57
2022/04/30 00:56:08;;;;;;;15.13;10.52;;;8.50;99.90;;;;;;5004429;28;20031;-55
2022/04/30 00:58:35;;;;;;;17.17;11.07;;;8.50;99.90;;;;;;4990378;28;20400;-58
2022/04/30 01:01:02;;;;;;;17.42;9.60;;;8.40;99.90;;;;;;4993672;28;20044;-58
2022/04/30 01:03:28;;;;;;;17.58;9.85;;;8.50;99.90;;;;;;4990640;28;20033;-58
2022/04/30 01:05:54;;;;;;;18.63;10.95;;;8.40;99.90;;;;;;4990808;28;20039;-54
2022/04/30 01:08:20;;;;;;;20.83;11.00;;;8.40;99.90;;;;;;4991590;28;20097;-61
2022/04/30 01:10:46;;;;;;;14.77;10.57;;;8.40;99.90;;;;;;4992306;28;20026;-57
2022/04/30 01:13:13;;;;;;;13.93;9.80;;;8.30;99.90;;;;;;4989252;28;20140;-57
2022/04/30 01:15:39;;;;;;;15.70;10.35;;;8.30;99.90;;;;;;4991735;28;20096;-58
2022/04/30 01:18:07;;;;;;;20.60;10.38;;;8.30;99.90;;;;;;4990615;28;20484;-60
2022/04/30 01:20:35;;;;;;;18.42;11.30;;;8.20;99.90;;;;;;4996089;28;20019;-60
2022/04/30 01:23:02;;;;;;;18.25;10.38;;;8.20;99.90;;;;;;4992582;28;20454;-59
2022/04/30 01:25:30;;;;;;;22.15;12.15;;;8.20;99.90;;;;;;4984626;28;20105;-59
2022/04/30 01:28:01;;;;;;;15.23;10.68;;;8.10;99.90;;;;;;4989339;28;20034;-59
2022/04/30 01:30:28;;;;;;;17.25;11.52;;;8.20;99.90;;;;;;4988215;28;20051;-61
2022/04/30 01:38:22;;;;;;;18.92;11.25;;;8.10;99.90;;;;;;4983613;28;20077;-58
2022/04/30 01:40:48;;;;;;;18.45;11.13;;;8.00;99.90;;;;;;4979673;28;20038;-59
2022/04/30 01:43:16;;;;;;;19.05;12.77;;;8.00;99.90;;;;;;4985392;28;20065;-58
2022/04/30 01:45:44;;;;;;;15.75;10.75;;;8.00;99.90;;;;;;4992246;28;20093;-57
2022/04/30 01:48:14;;;;;;;17.25;11.32;;;8.00;99.90;;;;;;4989448;28;20036;-57
2022/04/30 01:50:43;;;;;;;18.88;10.75;;;7.90;99.90;;;;;;4989153;28;20131;-57
2022/04/30 01:53:09;;;;;;;18.23;11.52;;;7.80;99.90;;;;;;4990707;28;20064;-57
2022/04/30 01:55:36;;;;;;;29.08;11.30;;;7.80;99.90;;;;;;4985458;28;20101;-57
2022/04/30 01:58:03;;;;;;;16.73;9.98;;;7.80;99.90;;;;;;4982967;28;20085;-60
2022/04/30 02:00:29;;;;;;;17.05;11.75;;;7.80;99.90;;;;;;4980867;28;20023;-59
2022/04/30 02:03:00;;;;;;;18.00;11.43;;;7.80;99.90;;;;;;4979337;28;20031;-58
2022/04/30 02:05:26;;;;;;;18.25;11.55;;;7.80;99.90;;;;;;4980466;28;20068;-61
2022/04/30 02:08:00;;;;;;;15.48;10.38;;;7.70;99.90;;;;;;4978578;28;20106;-57
2022/04/30 02:10:26;;;;;;;18.17;10.65;;;7.70;99.90;;;;;;4982973;28;20034;-59
2022/04/30 02:12:52;;;;;;;18.33;11.10;;;7.70;99.90;;;;;;4984606;28;20043;-58
2022/04/30 02:15:19;;;;;;;20.92;10.38;;;7.70;99.90;;;;;;4981136;28;20039;-57
2022/04/30 02:17:46;;;;;;;22.10;11.10;;;7.60;99.90;;;;;;4974444;28;20054;-57
2022/04/30 02:20:24;;;;;;;16.25;10.90;;;7.50;99.90;;;;;;4983848;28;20069;-60
2022/04/30 02:22:52;;;;;;;21.45;12.35;;;7.50;99.90;;;;;;4986719;28;20061;-58
2022/04/30 02:25:19;;;;;;;14.70;10.65;;;7.40;99.90;;;;;;4981703;28;20027;-58
2022/04/30 02:27:47;;;;;;;21.00;11.40;;;7.40;99.90;;;;;;4978896;28;20030;-61
2022/04/30 02:30:17;;;;;;;15.00;10.00;;;7.30;99.90;;;;;;4992579;28;20518;-59
2022/04/30 02:32:46;;;;;;;18.88;11.18;;;7.30;99.90;;;;;;5000496;28;20026;-59
2022/04/30 02:35:14;;;;;;;18.27;10.45;;;7.30;99.90;;;;;;4997000;28;20045;-59
2022/04/30 02:37:41;;;;;;;18.00;10.60;;;7.20;99.90;;;;;;4992116;28;20058;-58
2022/04/30 02:40:07;;;;;;;21.17;11.20;;;7.20;99.90;;;;;;4992956;28;20631;-60
2022/04/30 02:42:34;;;;;;;19.25;11.10;;;7.10;99.90;;;;;;5002891;28;20037;-58
2022/04/30 02:45:00;;;;;;;20.65;10.82;;;7.00;99.90;;;;;;4986712;28;20043;-60
2022/04/30 02:47:25;;;;;;;20.20;11.20;;;6.90;99.90;;;;;;4992299;28;20145;-60
2022/04/30 02:49:51;;;;;;;15.18;11.07;;;6.90;99.90;;;;;;4992523;28;20038;-57
2022/04/30 02:52:16;;;;;;;22.33;11.65;;;6.90;99.90;;;;;;4992094;28;20066;-60
2022/04/30 02:54:42;;;;;;;16.85;11.27;;;6.90;99.90;;;;;;4991886;28;20140;-58
2022/04/30 02:57:07;;;;;;;18.05;11.88;;;6.90;99.90;;;;;;4987378;28;20023;-60
2022/04/30 03:02:17;;;;;;;21.45;11.68;;;6.80;99.90;;;;;;4990940;28;20510;-60
2022/04/30 03:04:42;;;;;;;18.27;12.43;;;6.80;99.90;;;;;;4992489;28;20042;-60
2022/04/30 03:07:11;;;;;;;21.23;11.18;;;6.80;99.90;;;;;;4989195;28;20037;-58
2022/04/30 03:09:39;;;;;;;20.15;11.75;;;6.70;99.90;;;;;;4983130;28;20635;-59
2022/04/30 03:12:08;;;;;;;18.77;12.80;;;6.70;99.90;;;;;;4989923;28;20030;-59
2022/04/30 03:14:35;;;;;;;21.63;12.48;;;6.60;99.90;;;;;;4990949;28;20376;-60
2022/04/30 03:22:29;;;;;;;28.27;14.07;;;6.40;99.90;;;;;;4989507;28;20045;-61
2022/04/30 03:24:54;;;;;;;19.77;12.77;;;6.40;99.90;;;;;;4991075;28;20026;-60
2022/04/30 03:27:20;;;;;;;26.05;13.57;;;6.40;99.90;;;;;;4986927;28;20030;-59
2022/04/30 03:29:46;;;;;;;23.38;13.85;;;6.30;99.90;;;;;;4990323;28;20030;-59
2022/04/30 03:32:12;;;;;;;23.58;12.88;;;6.30;99.90;;;;;;4985750;28;20030;-59
2022/04/30 03:34:38;;;;;;;19.40;12.57;;;6.30;99.90;;;;;;4987900;28;20034;-60
2022/04/30 03:37:04;;;;;;;26.80;15.65;;;6.30;99.90;;;;;;4986511;28;20479;-57
2022/04/30 03:39:30;;;;;;;19.02;12.85;;;6.30;99.90;;;;;;4997242;28;20507;-56
2022/04/30 03:41:55;;;;;;;24.35;12.65;;;6.20;99.90;;;;;;4991061;28;20104;-59
2022/04/30 03:44:21;;;;;;;22.45;13.43;;;6.20;99.90;;;;;;4988361;28;20085;-59
2022/04/30 03:46:46;;;;;;;22.55;13.48;;;6.20;99.90;;;;;;4992751;28;20547;-57
2022/04/30 03:49:12;;;;;;;22.65;13.50;;;6.20;99.90;;;;;;4991701;28;20045;-59
2022/04/30 03:51:38;;;;;;;20.90;13.45;;;6.10;99.90;;;;;;4985802;28;20030;-58
2022/04/30 03:54:04;;;;;;;23.05;13.93;;;6.10;99.90;;;;;;4988434;28;20030;-59
2022/04/30 03:56:30;;;;;;;22.40;12.95;;;6.10;99.90;;;;;;4989269;28;20066;-58
2022/04/30 03:58:56;;;;;;;29.65;12.35;;;6.10;99.90;;;;;;4989075;28;20037;-58
2022/04/30 04:01:22;;;;;;;18.95;12.68;;;6.10;99.90;;;;;;4995054;28;20097;-59
2022/04/30 04:03:50;;;;;;;19.92;11.85;;;6.10;99.90;;;;;;4988420;28;20548;-60
2022/04/30 04:06:19;;;;;;;21.90;14.77;;;6.00;99.90;;;;;;4985181;28;20031;-56
2022/04/30 04:08:49;;;;;;;27.92;13.60;;;6.00;99.90;;;;;;4987617;28;20030;-59
2022/04/30 04:11:16;;;;;;;19.15;12.70;;;6.00;99.90;;;;;;4990680;28;20022;-59
2022/04/30 04:19:10;;;;;;;22.98;12.13;;;5.90;99.90;;;;;;5009020;28;20644;-58
2022/04/30 04:21:36;;;;;;;19.23;13.05;;;5.90;99.90;;;;;;5007840;28;20058;-58
2022/04/30 04:26:46;;;;;;;25.13;12.40;;;5.90;99.90;;;;;;5018488;28;20402;-57
2022/04/30 04:29:11;;;;;;;17.58;12.32;;;5.90;99.90;;;;;;5029277;28;20029;-55
2022/04/30 04:31:37;;;;;;;22.50;11.55;;;5.90;99.90;;;;;;5028209;28;20060;-57
2022/04/30 04:34:03;;;;;;;20.73;12.40;;;5.90;99.90;;;;;;5027141;28;20033;-57
2022/04/30 04:36:29;;;;;;;20.52;12.48;;;5.90;99.90;;;;;;5028319;28;20040;-57
2022/04/30 04:38:54;;;;;;;24.77;11.68;;;5.90;99.90;;;;;;5028990;28;20104;-59
2022/04/30 04:41:20;;;;;;;21.83;11.45;;;5.90;99.90;;;;;;5030159;28;20037;-57
2022/04/30 04:43:45;;;;;;;19.58;10.98;;;5.90;99.90;;;;;;5027964;28;20033;-58
2022/04/30 04:46:11;;;;;;;23.67;11.27;;;5.90;99.90;;;;;;5029010;28;20033;-58
2022/04/30 04:48:37;;;;;;;20.85;11.45;;;5.90;99.90;;;;;;5028331;28;20029;-56
2022/04/30 04:51:03;;;;;;;23.52;11.90;;;6.00;99.90;;;;;;5029508;28;20037;-58
2022/04/30 04:53:29;;;;;;;18.35;10.50;;;6.00;99.90;;;;;;5025962;28;20025;-56
2022/04/30 04:55:54;;;;;;;20.05;11.18;;;6.10;99.90;;;;;;5029734;28;20083;-57
2022/04/30 04:58:20;;;;;;;22.30;12.20;;;6.10;99.90;;;;;;5009689;28;20037;-57
2022/04/30 05:00:46;;;;;;;15.02;9.73;;;6.30;99.90;;;;;;5027326;28;20075;-58
2022/04/30 05:03:12;;;;;;;18.27;10.20;;;6.60;99.90;;;;;;5008481;28;20030;-58
2022/04/30 05:05:38;;;;;;;18.95;8.80;;;7.30;99.90;;;;;;5025923;28;20021;-57
2022/04/30 05:08:04;;;;;;;12.95;7.60;;;8.10;99.90;;;;;;5028443;28;20075;-56
2022/04/30 05:10:30;;;;;;;13.57;9.07;;;8.80;99.90;;;;;;5027657;28;20462;-58
2022/04/30 05:12:56;;;;;;;13.93;8.60;;;9.00;99.90;;;;;;5028869;28;20055;-57
2022/04/30 05:15:21;;;;;;;12.30;7.28;;;9.30;99.90;;;;;;5027258;28;20521;-51
2022/04/30 05:17:47;;;;;;;15.30;7.38;;;9.30;99.90;;;;;;5028250;28;20048;-57
2022/04/30 05:20:13;;;;;;;12.32;7.85;;;9.60;99.90;;;;;;5009708;28;20406;-58
2022/04/30 05:22:38;;;;;;;13.23;7.55;;;9.90;99.90;;;;;;5031619;28;20391;-59
2022/04/30 05:25:04;;;;;;;10.40;6.53;;;9.70;99.90;;;;;;5031065;28;20112;-59
2022/04/30 05:27:30;;;;;;;14.43;6.95;;;9.80;99.90;;;;;;5030349;28;20033;-59
2022/04/30 05:29:55;;;;;;;11.43;7.38;;;9.90;99.90;;;;;;5031868;28;20037;-58
2022/04/30 05:32:21;;;;;;;13.27;7.20;;;9.80;99.90;;;;;;5030159;28;20137;-59
2022/04/30 05:34:46;;;;;;;12.35;7.50;;;9.70;99.90;;;;;;5031457;28;20033;-59
2022/04/30 05:37:12;;;;;;;11.60;7.07;;;10.10;99.90;;;;;;5030387;28;20052;-59
2022/04/30 05:39:38;;;;;;;10.57;7.13;;;10.30;99.90;;;;;;5029622;28;20367;-59
2022/04/30 05:42:04;;;;;;;11.75;7.45;;;10.10;99.90;;;;;;5033003;28;20025;-58
2022/04/30 05:44:29;;;;;;;13.52;7.53;;;10.40;99.90;;;;;;5027804;28;20109;-59
2022/04/30 05:46:55;;;;;;;10.80;7.55;;;10.80;99.90;;;;;;5030289;28;20120;-60
2022/04/30 05:49:20;;;;;;;14.30;7.95;;;10.90;99.90;;;;;;5029294;28;20052;-55
2022/04/30 05:51:46;;;;;;;13.52;7.85;;;10.40;99.90;;;;;;5029843;28;20048;-58
2022/04/30 05:54:12;;;;;;;12.18;8.45;;;10.10;99.90;;;;;;5031740;28;20041;-58
2022/04/30 05:56:37;;;;;;;12.25;8.82;;;9.80;99.90;;;;;;5032461;28;20029;-59
2022/04/30 05:59:03;;;;;;;17.15;8.60;;;9.50;99.90;;;;;;5031811;28;20179;-58
2022/04/30 06:01:28;;;;;;;17.15;8.90;;;9.50;99.90;;;;;;5031464;28;20024;-59
2022/04/30 06:03:54;;;;;;;18.33;9.82;;;9.20;99.90;;;;;;5030743;28;20548;-59
2022/04/30 06:06:20;;;;;;;18.73;9.77;;;8.80;99.90;;;;;;5029983;28;20097;-58
2022/04/30 06:08:47;;;;;;;14.30;9.20;;;8.70;99.90;;;;;;5030953;28;20223;-59
2022/04/30 06:11:13;;;;;;;16.85;9.27;;;8.60;99.90;;;;;;5031013;28;20410;-59
2022/04/30 06:13:38;;;;;;;15.52;9.07;;;8.40;99.90;;;;;;5029812;28;20037;-57
2022/04/30 06:16:04;;;;;;;13.52;8.70;;;8.30;99.90;;;;;;5031098;28;20037;-58
2022/04/30 06:18:30;;;;;;;17.75;8.80;;;8.20;99.90;;;;;;5028646;28;20033;-58
2022/04/30 06:20:56;;;;;;;13.90;8.85;;;8.20;99.90;;;;;;5030194;28;20133;-59
2022/04/30 06:23:21;;;;;;;17.50;9.20;;;8.30;99.90;;;;;;5030473;28;20399;-57
2022/04/30 06:25:47;;;;;;;15.93;9.05;;;8.30;99.90;;;;;;5027157;28;20036;-58
2022/04/30 06:28:13;;;;;;;15.50;9.02;;;8.20;99.90;;;;;;5029840;28;20038;-58
2022/04/30 06:30:40;;;;;;;13.82;7.90;;;8.30;99.90;;;;;;5030435;28;20029;-57
2022/04/30 06:33:06;;;;;;;21.40;9.05;;;8.50;99.90;;;;;;5029657;28;20383;-58
2022/04/30 06:35:32;;;;;;;14.93;7.82;;;8.80;99.90;;;;;;5027960;28;20166;-58
2022/04/30 06:37:58;;;;;;;18.33;9.98;;;8.80;99.90;;;;;;5028371;28;20151;-59
2022/04/30 06:40:23;;;;;;;13.07;8.20;;;8.90;99.90;;;;;;5029501;28;20108;-58
2022/04/30 06:42:49;;;;;;;13.57;8.05;;;9.00;99.90;;;;;;5030417;28;20128;-58
2022/04/30 06:45:16;;;;;;;11.93;7.95;;;9.00;99.90;;;;;;5034371;28;20378;-59
2022/04/30 06:47:43;;;;;;;13.50;7.82;;;9.10;99.90;;;;;;5030499;28;20539;-58
2022/04/30 06:50:09;;;;;;;13.57;7.85;;;9.30;99.90;;;;;;5026611;28;20030;-58
2022/04/30 06:57:06;;;;;;;9.13;6.45;;;9.40;99.90;;;;;;5030544;28;20475;-58
2022/04/30 06:58:05;;;;;;;11.80;6.88;;;9.60;99.90;;;;;;5029662;28;20056;-59
2022/04/30 07:03:15;;;;;;;12.32;8.02;;;9.60;99.90;;;;;;5028773;28;20087;-58
2022/04/30 07:05:41;;;;;;;12.95;6.80;;;9.90;99.90;;;;;;5028398;28;20029;-59
2022/04/30 07:08:07;;;;;;;8.25;6.38;;;10.40;99.90;;;;;;5028914;28;20356;-58
2022/04/30 07:10:32;;;;;;;12.00;7.03;;;10.70;99.90;;;;;;5029779;28;20071;-59
2022/04/30 07:12:58;;;;;;;10.85;6.65;;;11.00;99.90;;;;;;5027971;28;20029;-56
2022/04/30 07:15:23;;;;;;;13.00;6.43;;;11.40;99.90;;;;;;5028861;28;20040;-56
2022/04/30 07:17:49;;;;;;;10.50;6.80;;;11.20;99.90;;;;;;5028808;28;20044;-59
2022/04/30 07:20:14;;;;;;;11.50;6.20;;;11.70;98.50;;;;;;5029971;28;20406;-58
2022/04/30 07:22:40;;;;;;;10.95;6.28;;;12.30;97.70;;;;;;5028647;28;20032;-59
2022/04/30 07:25:06;;;;;;;9.48;6.05;;;12.30;96.20;;;;;;5028991;28;20061;-57
2022/04/30 07:27:32;;;;;;;11.15;6.25;;;12.10;95.30;;;;;;5028133;28;20025;-59
2022/04/30 07:29:58;;;;;;;10.70;6.13;;;11.90;96.30;;;;;;5026289;28;20078;-59
2022/04/30 07:32:23;;;;;;;11.73;5.97;;;11.90;97.00;;;;;;5028457;28;20509;-58
2022/04/30 07:34:49;;;;;;;11.13;6.65;;;12.30;97.30;;;;;;5028704;28;20070;-59
2022/04/30 07:37:14;;;;;;;9.63;6.50;;;13.40;95.80;;;;;;5027457;28;20186;-58
2022/04/30 07:39:40;;;;;;;7.93;5.40;;;13.60;93.60;;;;;;5029034;28;20040;-58
2022/04/30 07:42:06;;;;;;;14.88;5.93;;;13.50;93.50;;;;;;5024173;28;20478;-58
2022/04/30 07:44:32;;;;;;;10.00;5.65;;;13.20;93.20;;;;;;5027089;28;20022;-58
2022/04/30 07:46:58;;;;;;;8.98;5.75;;;12.80;94.10;;;;;;5030441;28;20364;-58
2022/04/30 07:49:25;;;;;;;6.53;5.25;;;12.30;94.30;;;;;;5028343;28;20033;-57
2022/04/30 07:51:55;;;;;;;11.40;5.28;;;12.00;96.10;;;;;;5016866;28;20061;-58
2022/04/30 07:54:21;;;;;;;12.90;6.07;;;11.90;96.40;;;;;;5026594;28;20029;-59
2022/04/30 07:56:50;;;;;;;11.05;5.20;;;12.10;95.80;;;;;;5028217;28;20037;-58
2022/04/30 07:59:16;;;;;;;6.78;4.50;;;12.10;95.20;;;;;;5028436;28;20117;-59
2022/04/30 08:01:42;;;;;;;7.35;4.60;;;12.10;95.40;;;;;;5027653;28;20337;-59
2022/04/30 08:04:07;;;;;;;8.25;4.45;;;11.80;95.60;;;;;;5019335;28;20049;-58
2022/04/30 08:06:33;;;;;;;6.45;4.25;;;12.00;94.80;;;;;;5027922;28;20037;-58
2022/04/30 08:08:58;;;;;;;10.18;4.82;;;12.10;94.60;;;;;;5027850;28;20044;-58
2022/04/30 08:11:24;;;;;;;7.20;4.65;;;12.00;95.20;;;;;;5027166;28;20060;-57
2022/04/30 08:13:50;;;;;;;8.00;4.32;;;12.00;94.50;;;;;;5027236;28;20061;-58
2022/04/30 08:16:15;;;;;;;8.52;4.43;;;12.30;95.60;;;;;;5029544;28;20079;-58
2022/04/30 08:18:41;;;;;;;9.40;4.65;;;13.70;94.80;;;;;;5029481;28;20021;-59
2022/04/30 08:21:07;;;;;;;6.60;3.95;;;15.20;92.20;;;;;;5030045;28;20120;-59
2022/04/30 08:23:34;;;;;;;7.05;4.18;;;16.70;85.60;;;;;;5027327;28;20044;-58
2022/04/30 08:26:01;;;;;;;7.38;4.93;;;16.10;83.20;;;;;;5026645;28;20022;-59
2022/04/30 08:28:27;;;;;;;7.72;4.60;;;15.00;86.40;;;;;;5028060;28;20419;-59
2022/04/30 08:30:52;;;;;;;7.80;3.70;;;14.70;88.60;;;;;;5033422;28;20037;-59
2022/04/30 08:33:19;;;;;;;7.72;3.97;;;14.30;90.20;;;;;;5026108;28;20494;-59
2022/04/30 08:35:44;;;;;;;6.90;4.00;;;14.60;90.70;;;;;;5026688;28;20028;-59
2022/04/30 08:38:10;;;;;;;12.23;3.67;;;16.00;83.80;;;;;;5026041;28;20430;-59
2022/04/30 08:40:35;;;;;;;4.38;2.72;;;16.40;79.20;;;;;;5027355;28;20108;-58
2022/04/30 08:43:13;;;;;;;7.75;3.38;;;16.40;80.00;;;;;;5027503;28;20053;-59
2022/04/30 08:45:40;;;;;;;7.68;3.20;;;16.70;82.00;;;;;;5025222;28;20022;-59
2022/04/30 08:48:09;;;;;;;5.85;2.67;;;17.80;79.80;;;;;;5024730;28;20438;-60
2022/04/30 08:50:35;;;;;;;9.25;3.17;;;18.90;78.10;;;;;;5025787;28;20021;-59
2022/04/30 08:53:01;;;;;;;11.15;3.28;;;18.70;75.60;;;;;;5025600;28;20033;-60
2022/04/30 08:55:27;;;;;;;4.82;2.65;;;18.20;73.50;;;;;;5028329;28;20029;-58
2022/04/30 08:57:52;;;;;;;6.50;2.85;;;17.90;73.90;;;;;;5029729;28;20106;-57
2022/04/30 09:00:18;;;;;;;7.57;2.45;;;17.50;77.20;;;;;;5032139;28;20060;-60
2022/04/30 09:02:51;;;;;;;4.10;1.95;;;18.20;75.30;;;;;;5031375;28;20040;-59
2022/04/30 09:05:17;;;;;;;8.93;2.22;;;18.50;71.90;;;;;;5018964;28;20045;-59
2022/04/30 09:07:53;;;;;;;5.57;2.10;;;18.70;72.90;;;;;;5028003;28;20520;-60
2022/04/30 09:10:32;;;;;;;7.40;2.60;;;19.00;71.20;;;;;;5032892;28;20076;-59
2022/04/30 09:13:09;;;;;;;6.93;2.90;;;18.10;70.00;;;;;;5026988;28;20044;-58
2022/04/30 09:15:36;;;;;;;5.05;3.05;;;17.30;73.10;;;;;;5031068;28;20075;-58
2022/04/30 09:18:04;;;;;;;5.30;3.03;;;17.20;73.60;;;;;;5032491;28;20029;-59
2022/04/30 09:20:31;;;;;;;4.47;2.83;;;17.30;73.30;;;;;;5030604;28;20038;-56
2022/04/30 09:22:57;;;;;;;5.72;2.80;;;17.50;74.60;;;;;;5031323;28;20029;-60
2022/04/30 09:25:23;;;;;;;8.45;2.78;;;17.90;73.50;;;;;;5030322;28;20025;-59
2022/04/30 09:27:51;;;;;;;10.40;2.67;;;17.10;73.00;;;;;;5032472;28;20498;-58
2022/04/30 09:30:25;;;;;;;5.95;3.10;;;16.40;73.20;;;;;;5030557;28;20398;-59
2022/04/30 09:33:05;;;;;;;8.35;2.72;;;15.70;76.00;;;;;;5031147;28;20029;-59
2022/04/30 09:38:16;;;;;;;5.50;2.85;;;15.50;75.30;;;;;;5031194;28;20091;-59
2022/04/30 09:40:57;;;;;;;7.03;2.80;;;15.50;77.10;;;;;;5032780;28;20018;-59
2022/04/30 09:43:30;;;;;;;7.10;2.88;;;15.80;76.50;;;;;;5030878;28;20027;-59
2022/04/30 09:45:59;;;;;;;4.00;2.22;;;16.00;75.10;;;;;;5026090;28;20036;-59
2022/04/30 09:53:57;;;;;;;7.13;3.10;;;16.80;73.70;;;;;;5024871;28;20083;-60
2022/04/30 09:56:44;;;;;;;6.70;2.40;;;16.70;73.10;;;;;;5029254;28;20037;-60
2022/04/30 09:59:11;;;;;;;8.20;2.22;;;16.50;72.80;;;;;;5026834;28;20029;-60
2022/04/30 10:01:42;;;;;;;8.55;2.67;;;16.20;73.80;;;;;;5024500;28;20025;-60
2022/04/30 10:04:12;;;;;;;5.50;2.80;;;15.70;74.80;;;;;;5029419;28;20415;-59
2022/04/30 10:06:43;;;;;;;6.40;2.40;;;15.10;74.40;;;;;;5027308;28;20025;-59
2022/04/30 10:09:13;;;;;;;4.90;1.92;;;14.80;76.20;;;;;;5029502;28;20033;-59
2022/04/30 10:11:56;;;;;;;4.30;2.60;;;14.90;75.20;;;;;;5031018;28;20048;-59
2022/04/30 10:14:38;;;;;;;8.05;2.03;;;15.00;76.50;;;;;;5017651;28;20072;-55
2022/04/30 10:17:12;;;;;;;5.15;2.05;;;15.00;76.10;;;;;;5031706;28;20483;-59
2022/04/30 10:19:39;;;;;;;4.63;2.20;;;15.30;75.00;;;;;;5027050;28;20021;-58
2022/04/30 10:22:15;;;;;;;4.93;2.33;;;15.70;75.50;;;;;;5022519;28;20025;-59
2022/04/30 10:24:46;;;;;;;4.35;2.08;;;15.50;74.50;;;;;;5031048;28;20387;-58
2022/04/30 10:27:12;;;;;;;8.02;2.33;;;15.70;71.80;;;;;;5030879;28;20423;-59
2022/04/30 10:29:37;;;;;;;7.63;2.05;;;15.60;72.60;;;;;;5031611;28;20033;-58
2022/04/30 10:32:03;;;;;;;10.27;2.03;;;15.80;76.00;;;;;;5029800;28;20033;-59
2022/04/30 10:34:33;;;;;;;6.68;2.58;;;16.30;75.60;;;;;;5024025;28;20029;-59
2022/04/30 10:37:02;;;;;;;10.75;2.40;;;16.50;73.40;;;;;;5028823;28;20036;-59
2022/04/30 10:39:28;;;;;;;3.65;2.55;;;16.50;72.10;;;;;;5027968;28;20025;-59
2022/04/30 10:41:54;;;;;;;6.00;2.70;;;16.20;74.10;;;;;;5027877;28;20471;-58
2022/04/30 10:44:31;;;;;;;7.70;2.50;;;15.60;74.20;;;;;;5028572;28;20037;-59
2022/04/30 10:47:14;;;;;;;6.10;2.10;;;15.00;76.00;;;;;;5024991;28;20040;-59
2022/04/30 10:49:40;;;;;;;7.18;2.70;;;14.80;77.90;;;;;;5023438;28;20510;-60
2022/04/30 10:52:06;;;;;;;5.10;2.53;;;14.80;79.40;;;;;;5022249;28;20036;-59
2022/04/30 10:54:34;;;;;;;5.22;2.40;;;14.90;76.40;;;;;;5030448;28;20037;-59
2022/04/30 10:57:03;;;;;;;4.28;2.22;;;14.60;73.40;;;;;;5034790;28;20260;-58
2022/04/30 10:59:28;;;;;;;4.88;2.28;;;14.80;76.50;;;;;;5019133;28;20018;-58
2022/04/30 11:01:54;;;;;;;7.10;2.83;;;15.10;75.80;;;;;;5030975;28;20104;-59
2022/04/30 11:04:20;;;;;;;6.00;2.60;;;15.50;76.90;;;;;;5026004;28;20033;-59
2022/04/30 11:06:50;;;;;;;5.78;3.20;;;15.50;74.10;;;;;;5026540;28;20094;-59
2022/04/30 11:09:16;;;;;;;4.53;2.88;;;15.60;71.80;;;;;;5031022;28;20045;-58
2022/04/30 11:11:47;;;;;;;4.68;2.22;;;15.30;72.90;;;;;;5029874;28;20025;-57
2022/04/30 11:14:13;;;;;;;4.68;2.60;;;15.10;74.10;;;;;;5028403;28;20048;-59
2022/04/30 11:16:51;;;;;;;4.45;2.40;;;14.70;74.50;;;;;;5028570;28;20034;-59
2022/04/30 11:19:19;;;;;;;6.18;2.38;;;14.50;73.70;;;;;;5004480;28;20080;-59
2022/04/30 11:21:53;;;;;;;3.33;2.50;;;14.40;78.10;;;;;;5043914;28;20011;-59
2022/04/30 11:24:26;;;;;;;4.88;2.15;;;14.30;76.00;;;;;;5033914;28;20030;-58
2022/04/30 11:26:59;;;;;;;3.83;2.40;;;14.70;76.30;;;;;;5038363;28;20102;-59
2022/04/30 11:29:25;;;;;;;6.60;2.10;;;14.90;75.50;;;;;;5042885;28;20686;-59
2022/04/30 11:31:52;;;;;;;4.32;2.35;;;14.90;79.50;;;;;;5031671;28;20045;-59
2022/04/30 11:34:18;;;;;;;3.83;2.58;;;14.90;76.00;;;;;;5024456;28;20025;-59
2022/04/30 11:36:45;;;;;;;7.50;2.60;;;15.00;74.80;;;;;;5020877;28;20033;-59
2022/04/30 11:39:12;;;;;;;5.82;2.70;;;14.80;76.50;;;;;;5029389;28;20394;-59
2022/04/30 11:41:43;;;;;;;3.33;2.38;;;15.40;75.80;;;;;;5028302;28;20029;-58
2022/04/30 11:44:10;;;;;;;3.05;2.25;;;15.40;75.80;;;;;;5029227;28;20025;-59
2022/04/30 11:46:37;;;;;;;4.85;3.15;;;15.60;74.80;;;;;;5027045;28;20053;-59
2022/04/30 11:49:17;;;;;;;4.25;2.30;;;15.30;73.70;;;;;;5029942;28;20064;-59
2022/04/30 11:51:43;;;;;;;6.22;3.42;;;15.00;74.30;;;;;;5019111;28;20108;-57
2022/04/30 11:54:11;;;;;;;5.93;2.65;;;14.80;75.70;;;;;;5029547;28;20029;-59
2022/04/30 11:56:38;;;;;;;5.78;2.70;;;14.70;75.80;;;;;;5029990;28;20030;-58
2022/04/30 11:59:04;;;;;;;3.80;2.30;;;14.80;75.30;;;;;;5026373;28;20025;-59
2022/04/30 12:01:33;;;;;;;7.65;3.53;;;15.00;75.10;;;;;;5029205;28;20033;-58
2022/04/30 12:04:08;;;;;;;5.15;2.88;;;15.20;72.90;;;;;;5029576;28;20040;-58
2022/04/30 12:06:34;;;;;;;6.47;2.72;;;15.30;75.90;;;;;;5010175;28;20038;-58
2022/04/30 12:09:00;;;;;;;4.38;3.28;;;15.60;72.60;;;;;;5025809;28;20100;-59
2022/04/30 12:11:26;;;;;;;4.28;2.58;;;15.50;72.50;;;;;;5027909;28;20021;-57
2022/04/30 12:14:00;;;;;;;6.10;3.05;;;15.40;73.50;;;;;;5026345;28;20031;-58
2022/04/30 12:16:33;;;;;;;4.65;2.45;;;15.20;73.90;;;;;;5029680;28;20064;-59
2022/04/30 12:24:43;;;;;;;4.25;2.88;;;15.50;75.30;;;;;;5027926;28;19963;-58
2022/04/30 12:27:10;;;;;;;10.13;3.30;;;15.60;73.30;;;;;;5026061;28;20458;-59
2022/04/30 12:29:37;;;;;;;5.15;3.28;;;15.50;72.50;;;;;;5027628;28;20096;-59
2022/04/30 12:32:04;;;;;;;3.65;2.53;;;15.40;76.30;;;;;;5026338;28;20324;-59
2022/04/30 12:34:37;;;;;;;9.93;3.50;;;15.50;73.90;;;;;;5019899;28;20045;-59
2022/04/30 12:37:04;;;;;;;6.40;3.67;;;15.30;72.20;;;;;;5030396;28;20025;-59
2022/04/30 12:39:29;;;;;;;8.05;4.65;;;15.30;73.10;;;;;;5032622;28;20033;-59
2022/04/30 12:41:58;;;;;;;7.57;4.28;;;15.30;71.50;;;;;;5032699;28;20075;-59
2022/04/30 12:44:24;;;;;;;4.50;3.20;;;15.40;72.10;;;;;;5031902;28;20151;-58
2022/04/30 12:46:50;;;;;;;7.38;3.00;;;15.30;74.90;;;;;;5028790;28;20462;-59
2022/04/30 12:49:19;;;;;;;6.43;4.00;;;15.20;74.10;;;;;;5032832;28;20063;-58
2022/04/30 12:51:48;;;;;;;7.00;3.50;;;15.00;73.00;;;;;;5033913;28;20034;-59
2022/04/30 12:54:16;;;;;;;6.28;3.10;;;14.80;74.70;;;;;;5030846;28;20060;-58
2022/04/30 12:56:43;;;;;;;6.45;3.60;;;14.70;73.70;;;;;;5026265;28;20033;-58
2022/04/30 12:59:09;;;;;;;3.83;2.80;;;14.70;73.20;;;;;;5033880;28;20025;-59
2022/04/30 13:01:36;;;;;;;4.78;3.83;;;14.80;73.20;;;;;;5033895;28;20053;-59
2022/04/30 13:04:02;;;;;;;5.03;3.20;;;14.90;72.90;;;;;;5032743;28;20030;-59
2022/04/30 13:06:29;;;;;;;5.10;3.45;;;14.80;75.30;;;;;;5023237;28;20025;-59
2022/04/30 13:14:23;;;;;;;3.78;2.78;;;14.90;72.40;;;;;;5028567;28;20028;-56
2022/04/30 13:16:50;;;;;;;4.57;3.53;;;14.90;71.50;;;;;;5031345;28;20116;-56
2022/04/30 13:19:15;;;;;;;5.32;3.47;;;15.00;71.50;;;;;;5032059;28;20485;-58
2022/04/30 13:21:41;;;;;;;10.60;3.80;;;15.10;73.80;;;;;;5033143;28;20064;-56
2022/04/30 13:24:08;;;;;;;6.25;3.88;;;15.40;73.70;;;;;;5033200;28;20537;-58
2022/04/30 13:26:33;;;;;;;7.20;4.85;;;15.70;72.80;;;;;;5033174;28;20075;-59
2022/04/30 13:28:59;;;;;;;7.82;4.63;;;15.60;70.20;;;;;;5030337;28;20458;-58
2022/04/30 13:31:25;;;;;;;6.07;3.70;;;15.20;71.90;;;;;;5031104;28;20033;-57